createdAt,value
2022-09-28T00:01:08.162Z,2.20
2022-09-28T00:06:12.630Z,3.10
2022-09-28T00:11:15.348Z,3.17
2022-09-28T00:16:19.572Z,2.90
2022-09-28T00:21:26.799Z,3.28
2022-09-28T00:26:29.980Z,2.95
2022-09-28T00:31:33.351Z,3.70
2022-09-28T00:36:34.944Z,2.80
2022-09-28T00:46:37.543Z,3.55
2022-09-28T00:51:41.970Z,3.90
2022-09-28T00:56:47.046Z,3.65
2022-09-28T01:01:49.293Z,4.47
2022-09-28T01:06:51.228Z,4.00
2022-09-28T01:11:52.932Z,4.43
2022-09-28T01:17:08.554Z,4.82
2022-09-28T01:22:43.340Z,4.53
2022-09-28T01:27:49.521Z,4.82
2022-09-28T01:32:54.716Z,5.53
2022-09-28T01:38:19.805Z,5.75
2022-09-28T01:43:25.806Z,5.60
2022-09-28T01:48:36.210Z,6.28
2022-09-28T01:53:43.296Z,6.03
2022-09-28T01:59:00.215Z,7.03
2022-09-28T02:04:14.670Z,7.88
2022-09-28T02:09:28.457Z,7.82
2022-09-28T02:14:34.754Z,8.57
2022-09-28T02:19:36.480Z,7.05
2022-09-28T02:24:41.047Z,6.75
2022-09-28T02:29:42.542Z,8.35
2022-09-28T02:39:45.356Z,8.05
2022-09-28T02:45:10.072Z,9.07
2022-09-28T02:50:36.775Z,8.98
2022-09-28T02:55:43.613Z,8.75
2022-09-28T03:00:56.116Z,10.63
2022-09-28T03:06:03.252Z,10.63
2022-09-28T03:11:13.817Z,9.77
2022-09-28T03:16:17.708Z,10.07
2022-09-28T03:21:19.132Z,9.82
2022-09-28T03:26:20.502Z,10.27
2022-09-28T03:31:21.934Z,10.77
2022-09-28T03:36:23.483Z,10.15
2022-09-28T03:41:25.231Z,10.77
2022-09-28T03:46:27.300Z,10.63
2022-09-28T03:51:28.672Z,9.73
2022-09-28T03:56:30.167Z,10.52
2022-09-28T04:01:31.640Z,9.95
2022-09-28T04:06:33.068Z,10.35
2022-09-28T04:11:59.450Z,11.27
2022-09-28T04:21:57.569Z,9.85
2022-09-28T04:27:18.879Z,8.57
2022-09-28T04:32:20.272Z,10.25
2022-09-28T04:37:21.618Z,10.93
2022-09-28T04:42:22.970Z,11.68
2022-09-28T04:47:25.053Z,11.68
2022-09-28T04:52:27.180Z,12.13
2022-09-28T04:57:28.508Z,11.32
2022-09-28T05:02:29.990Z,11.95
2022-09-28T05:07:31.357Z,12.48
2022-09-28T05:12:32.829Z,12.70
2022-09-28T05:17:34.422Z,12.73
2022-09-28T05:27:37.025Z,12.32
2022-09-28T05:32:42.107Z,12.73
2022-09-28T05:37:43.775Z,13.75
2022-09-28T05:42:45.095Z,11.93
2022-09-28T05:47:46.412Z,12.60
2022-09-28T05:52:50.050Z,13.30
2022-09-28T05:57:51.390Z,12.40
2022-09-28T06:03:12.922Z,12.50
2022-09-28T06:08:14.279Z,12.32
2022-09-28T06:13:15.653Z,11.52
2022-09-28T06:18:16.994Z,10.95
2022-09-28T06:23:18.393Z,10.75
2022-09-28T06:28:19.743Z,9.43
2022-09-28T06:33:21.866Z,11.45
2022-09-28T06:38:23.187Z,10.80
2022-09-28T06:43:24.558Z,11.35
2022-09-28T06:48:26.136Z,11.18
2022-09-28T06:58:30.901Z,10.07
2022-09-28T07:03:32.260Z,10.02
2022-09-28T07:08:33.600Z,8.95
2022-09-28T07:13:49.919Z,7.88
2022-09-28T07:18:51.981Z,6.63
2022-09-28T07:23:54.493Z,9.18
2022-09-28T07:28:56.040Z,8.35
2022-09-28T07:38:59.890Z,7.78
2022-09-28T07:44:07.783Z,7.22
2022-09-28T07:49:12.226Z,8.23
2022-09-28T07:54:13.873Z,7.07
2022-09-28T07:59:18.208Z,6.82
2022-09-28T08:04:20.464Z,7.40
2022-09-28T08:09:21.789Z,8.02
2022-09-28T08:14:23.591Z,7.85
2022-09-28T08:19:24.936Z,7.80
2022-09-28T08:24:30.911Z,8.38
2022-09-28T08:29:32.331Z,8.65
2022-09-28T08:34:38.927Z,6.47
2022-09-28T08:39:40.425Z,6.20
2022-09-28T08:49:49.923Z,6.28
2022-09-28T08:54:56.144Z,5.43
2022-09-28T09:00:00.556Z,5.63
2022-09-28T09:05:13.327Z,7.68
2022-09-28T09:10:42.542Z,7.13
2022-09-28T09:15:55.901Z,6.75
2022-09-28T09:20:59.577Z,6.97
2022-09-28T09:26:18.898Z,4.85
2022-09-28T09:31:33.138Z,4.95
2022-09-28T09:36:47.279Z,4.87
2022-09-28T09:42:08.877Z,5.18
2022-09-28T09:52:26.192Z,5.78
2022-09-28T09:57:35.944Z,6.43
2022-09-28T10:02:39.398Z,6.47
2022-09-28T10:07:50.753Z,4.20
2022-09-28T10:12:52.900Z,4.90
2022-09-28T10:17:56.815Z,5.28
2022-09-28T10:23:01.952Z,5.25
2022-09-28T10:28:06.233Z,5.57
2022-09-28T10:33:28.785Z,4.20
2022-09-28T10:38:31.272Z,4.35
2022-09-28T10:43:38.668Z,2.92
2022-09-28T10:48:59.879Z,3.05
2022-09-28T10:54:02.591Z,3.22
2022-09-28T10:59:28.619Z,3.30
2022-09-28T11:04:39.924Z,2.35
2022-09-28T11:09:45.783Z,2.70
2022-09-28T11:14:55.576Z,2.45
2022-09-28T11:19:59.755Z,4.03
2022-09-28T11:25:16.084Z,4.07
2022-09-28T11:30:30.956Z,3.95
2022-09-28T11:36:03.832Z,4.80
2022-09-28T11:41:23.720Z,4.53
2022-09-28T11:46:34.568Z,4.72
2022-09-28T11:51:39.712Z,4.03
2022-09-28T11:56:48.557Z,4.65
2022-09-28T12:01:55.492Z,4.13
2022-09-28T12:07:03.696Z,3.65
2022-09-28T12:12:20.846Z,3.58
2022-09-28T12:17:28.531Z,3.95
2022-09-28T12:22:34.749Z,3.72
2022-09-28T12:27:51.400Z,4.00
2022-09-28T12:32:59.460Z,4.10
2022-09-28T12:38:12.821Z,4.30
2022-09-28T12:43:29.003Z,3.70
2022-09-28T12:49:15.874Z,3.17
2022-09-28T12:54:28.447Z,3.47
2022-09-28T12:59:39.562Z,3.40
2022-09-28T13:04:55.015Z,2.90
2022-09-28T13:10:33.082Z,2.50
2022-09-28T13:15:43.524Z,2.90
2022-09-28T13:21:05.508Z,2.58
2022-09-28T13:26:17.220Z,1.95
2022-09-28T13:31:30.895Z,1.90
2022-09-28T13:36:36.630Z,2.00
2022-09-28T13:41:40.367Z,2.28
2022-09-28T13:47:20.882Z,2.17
2022-09-28T13:52:44.370Z,2.40
2022-09-28T13:57:52.680Z,3.30
2022-09-28T14:03:04.028Z,3.42
2022-09-28T14:13:10.355Z,2.53
2022-09-28T14:18:33.606Z,3.50
2022-09-28T14:23:47.638Z,3.83
2022-09-28T14:29:10.184Z,4.32
2022-09-28T14:34:32.736Z,5.25
2022-09-28T14:39:55.588Z,5.93
2022-09-28T14:45:06.301Z,5.18
2022-09-28T14:50:20.361Z,6.10
2022-09-28T14:55:31.031Z,5.80
2022-09-28T15:00:32.870Z,5.47
2022-09-28T15:05:48.170Z,6.20
2022-09-28T15:10:50.459Z,4.32
2022-09-28T15:15:59.329Z,4.00
2022-09-28T15:21:01.754Z,4.18
2022-09-28T15:26:07.613Z,3.30
2022-09-28T15:31:18.612Z,2.40
2022-09-28T15:36:26.484Z,3.00
2022-09-28T15:41:28.635Z,4.13
2022-09-28T15:46:30.083Z,3.92
2022-09-28T15:57:02.336Z,4.28
2022-09-28T16:02:19.094Z,3.50
2022-09-28T16:07:35.279Z,2.30
2022-09-28T16:12:36.628Z,2.00
2022-09-28T16:17:38.357Z,2.58
2022-09-28T16:22:42.811Z,2.58
2022-09-28T16:27:45.649Z,3.00
2022-09-28T16:32:52.962Z,1.30
2022-09-28T16:38:11.693Z,1.33
2022-09-28T16:43:34.889Z,1.40
2022-09-28T16:48:40.417Z,1.58
2022-09-28T16:54:00.518Z,1.90
2022-09-28T16:59:02.306Z,1.60
2022-09-28T17:04:03.926Z,1.50
2022-09-28T17:09:07.005Z,1.23
2022-09-28T17:14:08.822Z,1.65
2022-09-28T17:19:19.302Z,1.95
2022-09-28T17:24:20.941Z,2.33
2022-09-28T17:29:23.567Z,3.30
2022-09-28T17:34:24.949Z,3.30
2022-09-28T17:39:26.392Z,3.53
2022-09-28T17:44:27.735Z,3.83
2022-09-28T17:49:29.283Z,4.13
2022-09-28T17:59:31.847Z,6.25
2022-09-28T18:04:51.396Z,6.05
2022-09-28T18:09:56.574Z,5.60
2022-09-28T18:14:58.014Z,6.30
2022-09-28T18:25:00.693Z,6.82
2022-09-28T18:30:02.286Z,5.30
2022-09-28T18:45:11.099Z,4.60
2022-09-28T18:50:15.232Z,5.30
2022-09-28T18:55:16.765Z,4.25
2022-09-28T19:05:19.404Z,5.38
2022-09-28T19:10:20.809Z,5.00
2022-09-28T19:15:22.688Z,5.30
2022-09-28T19:20:23.992Z,6.28
2022-09-28T19:25:25.511Z,6.43
2022-09-28T19:35:28.122Z,6.88
2022-09-28T19:40:29.485Z,6.68
2022-09-28T19:45:30.818Z,8.00
2022-09-28T19:50:32.841Z,8.63
2022-09-28T19:55:37.147Z,6.65
2022-09-28T20:00:38.550Z,5.30
2022-09-28T20:05:41.404Z,7.03
2022-09-28T20:10:54.518Z,8.60
2022-09-28T20:15:56.352Z,6.93
2022-09-28T20:21:05.886Z,7.03
2022-09-28T20:26:09.225Z,5.95
2022-09-28T20:31:18.878Z,6.20
2022-09-28T20:36:25.294Z,6.22
2022-09-28T20:41:27.357Z,6.93
2022-09-28T20:46:30.107Z,6.82
2022-09-28T20:51:32.274Z,7.43
2022-09-28T20:56:37.976Z,7.90
2022-09-28T21:01:39.993Z,8.02
2022-09-28T21:06:42.045Z,8.98
2022-09-28T21:11:43.393Z,8.20
2022-09-28T21:16:44.732Z,8.63
2022-09-28T21:21:46.684Z,8.60
2022-09-28T21:26:48.024Z,8.70
2022-09-28T21:31:49.375Z,9.85
2022-09-28T21:36:51.200Z,8.23
2022-09-28T21:41:52.714Z,8.65
2022-09-28T21:46:54.045Z,8.73
2022-09-28T21:51:55.488Z,10.00
2022-09-28T21:56:56.827Z,8.52
2022-09-28T22:01:58.211Z,9.82
2022-09-28T22:06:59.650Z,10.23
2022-09-28T22:12:01.234Z,10.20
2022-09-28T22:22:03.821Z,9.80
2022-09-28T22:27:05.139Z,9.70
2022-09-28T22:32:07.449Z,10.02
2022-09-28T22:37:08.865Z,10.10
2022-09-28T22:42:10.210Z,10.25
2022-09-28T22:47:11.653Z,10.32
2022-09-28T22:52:13.012Z,11.15
2022-09-28T22:57:15.523Z,11.98
2022-09-28T23:02:16.893Z,10.15
2022-09-28T23:07:18.219Z,11.32
2022-09-28T23:12:19.528Z,10.75
2022-09-28T23:17:20.912Z,10.77
2022-09-28T23:22:22.325Z,10.52
2022-09-28T23:27:23.647Z,12.25
2022-09-28T23:32:27.524Z,10.90
2022-09-28T23:37:32.527Z,11.93
2022-09-28T23:42:34.843Z,12.43
2022-09-28T23:47:37.299Z,13.77
2022-09-28T23:52:38.677Z,15.30
2022-09-28T23:57:42.559Z,12.65
